Latest Weather Observations for Wangaratta

IDV60801

Issued at 4:31 pm EDT Monday 22 December 2014 (issued every 30 minutes, with the page automatically refreshed every 10 minutes)

About weather observations | Map of weather stations | Latest weather observations for VIC | Other Formats
Station Details ID: 082138 Name: WANGARATTA AERO Lat: -36.42 Lon: 146.31 Height: 152.6 m
Data from the previous 72 hours. | See also: Recent months at Wangaratta
Date/Time
EDT
Temp
°C
App
Temp
°C
Dew
Point
Rel
Hum
%
Delta-T
°C
Wind Press
QNH
hPa
Press
MSL
hPa
Rain
since 9 am
mm
Dir
 
Spd
km/h
Gust
km/h
Spd
kts
Gust
kts
22/04:30pm 30.2 28.4 10.7 30 11.3 NE 11 19 6 10 1008.3 1007.8 0.0
22/04:00pm 30.9 26.3 9.7 27 12.1 NE 24 33 13 18 1008.3 1007.8 0.0
22/03:30pm 30.8 26.1 9.1 26 12.2 NNE 24 41 13 22 1008.7 1008.2 0.0
22/03:00pm 31.2 27.1 8.8 25 12.6 N 20 26 11 14 1009.0 1008.5 0.0
22/02:38pm 31.6 27.3 7.9 23 13.1 NE 20 37 11 20 1009.2 1008.7 0.0
22/02:30pm 33.4 31.8 8.1 21 14.2 ESE 6 11 3 6 1009.0 1008.5 0.0
22/02:00pm 33.3 30.6 7.3 20 14.4 N 11 19 6 10 1009.5 1009.0 0.0
22/01:30pm 33.4 29.8 6.6 19 14.7 NE 15 19 8 10 1010.1 1009.6 0.0
22/01:00pm 34.1 30.8 6.4 18 15.2 NE 13 24 7 13 1010.5 1010.0 0.0
22/12:30pm 33.1 29.2 7.1 20 14.3 NNE 17 26 9 14 1011.1 1010.7 0.0
22/12:00pm 32.2 28.4 9.1 24 13.1 NNE 19 28 10 15 1011.8 1011.3 0.0
22/11:30am 32.8 29.9 9.6 24 13.3 NNE 15 28 8 15 1012.0 1011.5 0.0
22/11:00am 31.8 28.9 8.1 23 13.2 NE 13 20 7 11 1012.1 1011.6 0.0
22/10:30am 29.9 27.6 10.5 30 11.1 NNE 13 20 7 11 1012.5 1012.0 0.0
22/10:00am 29.6 28.7 10.7 31 10.9 NNE 6 15 3 8 1012.7 1012.2 0.0
22/09:30am 26.4 26.1 11.3 39 8.6 S 4 11 2 6 1012.9 1012.4 0.0
22/08:30am 23.1 22.2 10.5 45 7.0 E 6 9 3 5 1013.0 1012.5 0.0
22/08:00am 20.7 21.1 11.1 54 5.3 CALM 0 0 0 0 1013.0 1012.5 0.0
22/07:30am 19.1 19.6 11.7 62 4.1 CALM 0 6 0 3 1012.9 1012.4 0.0
22/07:00am 16.9 17.7 12.6 76 2.4 CALM 0 0 0 0 1012.7 1012.2 0.0
22/06:30am 14.1 13.3 10.9 81 1.7 SW 6 7 3 4 1012.4 1011.9 0.0
22/05:30am 13.8 12.8 11.0 83 1.5 SSW 7 9 4 5 1011.9 1011.4 0.0
22/05:00am 13.6 12.5 10.8 83 1.5 SSW 7 9 4 5 1011.5 1011.1 0.0
22/04:30am 14.8 14.3 11.9 83 1.6 SSW 6 7 3 4 1011.5 1011.1 0.0
22/04:00am 14.4 13.5 10.8 79 1.9 SSW 6 7 3 4 1011.5 1011.1 0.0
22/03:30am 14.2 13.3 11.2 82 1.6 SSW 7 9 4 5 1011.7 1011.2 0.0
22/03:00am 15.0 13.9 12.0 82 1.6 SSW 9 9 5 5 1011.7 1011.2 0.0
22/02:30am 14.9 14.0 11.3 79 1.9 SW 7 9 4 5 1011.8 1011.3 0.0
22/02:00am 16.2 15.4 11.6 74 2.5 S 7 9 4 5 1011.9 1011.4 0.0
22/01:30am 16.3 15.8 12.7 79 2.0 SW 7 9 4 5 1012.1 1011.6 0.0
22/01:00am 17.1 16.5 12.4 74 2.6 S 7 9 4 5 1012.3 1011.8 0.0
22/12:30am 17.6 17.1 12.7 73 2.7 SSW 7 9 4 5 1012.4 1011.9 0.0
22/12:00am 17.7 17.3 13.0 74 2.7 SW 7 9 4 5 1012.6 1012.1 0.0
 
Date/Time
EDT
Temp
°C
App
Temp
°C
Dew
Point
Rel
Hum
%
Delta-T
°C
Wind Press
QNH
hPa
Press
MSL
hPa
Rain
since 9 am
mm
Dir
 
Spd
km/h
Gust
km/h
Spd
kts
Gust
kts
21/11:30pm 18.6 18.1 12.6 68 3.4 SSE 7 9 4 5 1012.5 1012.0 0.0
21/11:00pm 20.9 21.6 12.1 57 5.0 CALM 0 0 0 0 1012.8 1012.3 0.0
21/10:30pm 20.5 21.1 12.0 58 4.8 CALM 0 6 0 3 1012.7 1012.2 0.0
21/10:00pm 21.5 21.2 12.6 57 5.1 WSW 6 9 3 5 1012.5 1012.0 0.0
21/09:30pm 22.7 21.7 12.3 52 5.9 SSE 9 13 5 7 1012.3 1011.8 0.0
21/09:00pm 24.0 23.5 10.7 43 7.4 ENE 4 9 2 5 1011.9 1011.4 0.0
21/08:30pm 27.3 25.9 9.6 33 9.9 E 7 9 4 5 1011.5 1011.1 0.0
21/08:00pm 29.1 26.7 7.1 25 11.9 E 9 11 5 6 1011.4 1011.0 0.0
21/07:30pm 30.5 28.0 6.4 22 13.0 E 9 13 5 7 1011.3 1010.9 0.0
21/07:00pm 31.2 28.0 3.3 17 14.3 ESE 9 13 5 7 1011.1 1010.7 0.0
21/06:30pm 32.2 29.0 4.9 18 14.5 E 11 17 6 9 1011.0 1010.5 0.0
21/06:00pm 33.1 30.2 4.8 17 15.0 WSW 9 17 5 9 1011.0 1010.7 0.0
21/05:30pm 32.7 29.8 2.7 15 15.4 E 7 13 4 7 1011.3 1010.9 0.0
21/05:00pm 32.1 28.9 3.1 16 14.9 NE 9 17 5 9 1011.4 1011.0 0.0
21/04:30pm 32.5 29.5 4.3 17 14.8 SSE 9 19 5 10 1011.7 1011.2 0.0
21/04:00pm 32.0 29.0 3.9 17 14.6 NW 9 13 5 7 1012.1 1011.6 0.0
21/03:30pm 32.8 30.6 6.2 19 14.4 NNW 7 17 4 9 1012.5 1012.0 0.0
21/03:00pm 32.1 29.9 6.3 20 14.0 SSE 7 19 4 10 1013.0 1012.5 0.0
21/02:30pm 31.0 28.0 6.1 21 13.4 E 11 19 6 10 1013.4 1012.9 0.0
21/02:00pm 30.9 29.0 7.4 23 12.9 W 7 17 4 9 1013.8 1013.3 0.0
21/01:30pm 30.3 26.4 6.9 23 12.7 NNW 17 26 9 14 1014.1 1013.6 0.0
21/01:00pm 30.3 27.9 8.7 26 12.0 NNE 11 20 6 11 1014.5 1014.0 0.0
21/12:30pm 29.3 25.8 7.2 25 12.0 WNW 15 28 8 15 1014.8 1014.3 0.0
21/12:00pm 29.4 27.5 9.0 28 11.4 NNW 9 19 5 10 1014.8 1014.3 0.0
21/11:30am 28.6 26.9 9.8 31 10.6 N 9 17 5 9 1015.1 1014.6 0.0
21/11:00am 27.4 24.9 9.7 33 9.9 NNW 13 20 7 11 1015.4 1014.9 0.0
21/10:30am 26.1 23.8 10.3 37 8.9 NNE 13 20 7 11 1015.4 1014.9 0.0
21/10:00am 24.8 22.7 11.0 42 7.8 NNE 13 19 7 10 1015.7 1015.2 0.0
21/09:30am 23.9 21.7 10.9 44 7.3 NNE 13 22 7 12 1016.1 1015.6 0.0
21/09:00am 21.9 21.0 11.3 51 5.9 NNE 7 9 4 5 1016.4 1015.9 0.0
21/08:30am 21.0 21.0 11.3 54 5.4 ENE 2 7 1 4 1016.2 1015.7 0.0
21/08:00am 18.8 19.2 11.4 62 4.1 CALM 0 0 0 0 1016.0 1015.5 0.0
21/07:30am 16.6 17.1 11.5 72 2.8 CALM 0 0 0 0 1015.9 1015.4 0.0
21/07:00am 14.4 14.7 10.8 79 1.9 CALM 0 0 0 0 1015.1 1014.6 0.0
21/06:30am 12.5 12.7 10.6 88 1.0 CALM 0 0 0 0 1014.7 1014.2 0.0
21/06:00am 11.9 11.6 10.1 89 0.9 SW 2 6 1 3 1014.5 1014.0 0.0
21/05:30am 12.1 11.9 9.1 82 1.5 CALM 0 0 0 0 1014.2 1013.7 0.0
21/05:00am 12.3 12.2 9.3 82 1.5 CALM 0 0 0 0 1013.9 1013.4 0.0
21/04:30am 12.7 11.4 10.1 84 1.3 SSW 7 9 4 5 1013.9 1013.4 0.0
21/04:00am 12.2 12.0 9.2 82 1.5 CALM 0 6 0 3 1013.9 1013.4 0.0
21/03:30am 13.2 11.9 9.3 77 2.0 NE 6 11 3 6 1014.1 1013.6 0.0
21/03:00am 14.5 12.9 10.1 75 2.3 S 9 11 5 6 1014.1 1013.6 0.0
21/02:30am 14.4 12.5 10.6 78 2.0 SW 11 13 6 7 1014.3 1013.8 0.0
21/02:00am 14.7 13.1 10.1 74 2.4 SSW 9 13 5 7 1014.5 1014.0 0.0
21/01:30am 17.0 14.9 9.9 63 3.8 S 11 13 6 7 1014.7 1014.2 0.0
21/01:00am 16.2 15.0 10.3 68 3.1 S 7 7 4 4 1014.8 1014.3 0.0
21/12:30am 17.1 16.1 10.2 64 3.7 S 6 7 3 4 1014.9 1014.4 0.0
21/12:00am 17.3 16.3 10.4 64 3.7 SW 6 7 3 4 1014.9 1014.4 0.0
 
Date/Time
EDT
Temp
°C
App
Temp
°C
Dew
Point
Rel
Hum
%
Delta-T
°C
Wind Press
QNH
hPa
Press
MSL
hPa
Rain
since 9 am
mm
Dir
 
Spd
km/h
Gust
km/h
Spd
kts
Gust
kts
20/11:30pm 19.7 17.3 8.7 49 5.8 S 11 13 6 7 1014.8 1014.3 0.0
20/11:00pm 19.8 17.8 8.5 48 5.9 S 9 13 5 7 1014.9 1014.4 0.0
20/10:30pm 20.8 18.3 8.4 45 6.5 SSW 11 15 6 8 1014.7 1014.2 0.0
20/10:00pm 20.9 17.1 7.5 42 6.9 SSW 17 19 9 10 1014.6 1014.1 0.0
20/09:30pm 21.8 18.2 6.9 38 7.7 SSW 15 19 8 10 1014.5 1014.0 0.0
20/09:00pm 22.5 19.1 7.5 38 7.9 SSW 15 20 8 11 1014.1 1013.6 0.0
20/08:30pm 24.1 20.5 8.5 37 8.4 SW 17 20 9 11 1013.9 1013.4 0.0
20/08:00pm 26.0 22.8 8.5 33 9.5 SSW 15 20 8 11 1013.7 1013.2 0.0
20/07:30pm 27.7 23.3 6.5 26 11.2 SSW 19 22 10 12 1013.5 1013.0 0.0
20/07:00pm 28.7 25.4 7.9 27 11.4 SW 15 20 8 11 1013.1 1012.6 0.0
20/06:30pm 29.1 25.4 6.5 24 12.1 SW 15 20 8 11 1012.9 1012.4 0.0
20/06:00pm 29.0 25.7 6.4 24 12.1 SSW 13 24 7 13 1012.8 1012.3 0.0
20/05:30pm 29.3 25.7 6.7 24 12.1 WSW 15 20 8 11 1013.0 1012.5 0.0
20/05:00pm 29.2 26.4 5.3 22 12.5 SW 9 13 5 7 1013.3 1012.8 0.0
20/04:30pm 28.9 25.8 5.7 23 12.2 SW 11 20 6 11 1013.6 1013.1 0.0
20/04:00pm 27.9 24.0 3.6 21 12.3 SW 13 20 7 11 1014.0 1013.5 0.0
20/03:30pm 27.9 24.8 5.5 24 11.7 WNW 11 20 6 11 1014.6 1014.1 0.0
20/03:00pm 27.3 23.8 5.6 25 11.3 WNW 13 22 7 12 1015.0 1014.5 0.0
20/02:30pm 26.8 23.6 5.1 25 11.2 W 11 19 6 10 1015.5 1015.0 0.0
20/02:00pm 26.3 22.6 4.7 25 11.0 WSW 13 19 7 10 1015.7 1015.2 0.0
20/01:30pm 25.3 22.6 5.5 28 10.2 NNW 9 24 5 13 1016.0 1015.5 0.0
20/01:00pm 24.6 21.5 5.4 29 9.8 WSW 11 22 6 12 1016.4 1015.9 0.0
20/12:30pm 24.5 22.0 6.7 32 9.3 WSW 9 15 5 8 1016.7 1016.2 0.0
20/12:00pm 23.3 20.1 5.2 31 9.1 NNE 11 15 6 8 1017.1 1016.7 0.0
20/11:30am 23.0 20.3 5.4 32 8.9 NNE 9 13 5 7 1017.5 1017.1 0.0
20/11:00am 21.4 18.4 4.0 32 8.5 NNE 9 17 5 9 1017.6 1017.2 0.0
20/10:30am 20.8 17.8 4.0 33 8.1 NW 9 13 5 7 1017.8 1017.4 0.0
20/10:00am 19.5 16.8 5.6 40 6.9 NNE 9 13 5 7 1017.9 1017.5 0.0
20/09:30am 18.5 16.7 5.4 42 6.4 S 4 9 2 5 1017.7 1017.3 0.0
20/09:00am 18.2 16.0 5.4 43 6.2 E 6 9 3 5 1017.8 1017.4 0.0
20/08:30am 16.0 13.5 5.0 48 5.3 SSE 7 11 4 6 1017.7 1017.3 0.0
20/08:00am 15.3 12.9 5.2 51 4.8 SE 7 9 4 5 1017.5 1017.1 0.0
20/07:30am 14.0 11.9 5.9 58 3.9 SSE 6 7 3 4 1017.3 1016.9 0.0
20/07:00am 12.3 10.3 6.1 66 2.9 ENE 6 7 3 4 1016.9 1016.5 0.0
20/06:30am 9.4 7.5 6.5 82 1.4 S 6 7 3 4 1016.8 1016.4 0.0
20/06:00am 8.9 6.2 5.5 79 1.5 SSE 9 11 5 6 1016.4 1015.9 0.0
20/05:30am 9.4 7.1 5.0 74 2.0 SE 6 7 3 4 1016.2 1015.7 0.0
20/05:00am 10.5 7.4 5.7 72 2.2 SSE 11 13 6 7 1016.1 1015.6 0.0
20/04:30am 11.8 9.1 5.4 65 3.0 S 9 11 5 6 1016.0 1015.5 0.0
20/04:00am 9.9 7.3 5.9 76 1.9 SW 9 13 5 7 1016.0 1015.5 0.0
20/03:30am 9.7 6.2 5.5 75 1.9 SSW 13 13 7 7 1016.1 1015.6 0.0
20/03:00am 10.7 7.9 5.3 69 2.5 SW 9 13 5 7 1016.4 1015.9 0.0
20/02:30am 12.7 10.0 5.6 62 3.3 S 9 11 5 6 1016.4 1015.9 0.0
20/02:00am 12.9 10.5 5.1 59 3.6 S 7 11 4 6 1016.7 1016.2 0.0
20/01:30am 15.2 10.8 4.6 49 5.0 S 17 22 9 12 1016.9 1016.5 0.0
20/01:00am 13.1 9.9 5.3 59 3.7 S 11 15 6 8 1017.0 1016.6 0.0
20/12:30am 13.9 11.1 5.0 55 4.2 S 9 13 5 7 1017.2 1016.8 0.0
20/12:00am 14.7 9.9 4.7 51 4.7 SSW 19 24 10 13 1017.3 1016.9 0.0
 
Date/Time
EDT
Temp
°C
App
Temp
°C
Dew
Point
Rel
Hum
%
Delta-T
°C
Wind Press
QNH
hPa
Press
MSL
hPa
Rain
since 9 am
mm
Dir
 
Spd
km/h
Gust
km/h
Spd
kts
Gust
kts
19/11:30pm 14.7 10.3 4.7 51 4.7 SSW 17 24 9 13 1017.4 1017.0 0.0
19/11:00pm 15.0 10.7 5.2 52 4.7 SSW 17 20 9 11 1017.6 1017.2 0.0
19/10:30pm 15.3 10.9 4.9 50 4.9 SSW 17 22 9 12 1017.4 1017.0 0.0
19/10:00pm 16.4 11.6 4.4 45 5.7 SW 19 26 10 14 1017.2 1016.8 0.0
19/09:30pm 16.6 11.8 4.6 45 5.7 SW 19 24 10 13 1016.9 1016.5 0.0
19/09:00pm 17.3 12.3 4.6 43 6.1 SW 20 28 11 15 1016.6 1016.1 0.0
19/08:30pm 18.1 13.0 3.9 39 6.7 SW 20 28 11 15 1016.6 1016.1 0.0
19/08:00pm 19.2 13.3 3.8 36 7.3 SW 24 35 13 19 1016.3 1015.8 0.0
19/07:30pm 20.0 13.7 3.7 34 7.8 SW 26 39 14 21 1015.9 1015.4 0.0
19/07:00pm 20.9 14.6 4.0 33 8.2 SSW 26 39 14 21 1015.5 1015.0 0.0
19/06:30pm 21.3 14.6 3.5 31 8.6 SW 28 43 15 23 1015.1 1014.6 0.0
19/06:00pm 21.4 14.7 3.6 31 8.6 SSW 28 39 15 21 1014.7 1014.2 0.0
19/05:30pm 22.0 15.7 3.6 30 8.9 SW 26 35 14 19 1014.4 1013.9 0.0
19/05:00pm 22.5 15.8 3.6 29 9.2 SW 28 41 15 22 1014.5 1014.0 0.0

Other Formats:

Comma delimited format used in spreadsheet applications
http://www.bom.gov.au/fwo/IDV60801/IDV60801.94889.axf

JavaScript Object Notation format (JSON) in row-major order
http://www.bom.gov.au/fwo/IDV60801/IDV60801.94889.json